Time;durP1;ratioP1;P1;durP2;ratioP2;P2;SDS_P1;SDS_P2;PMS_P1;PMS_P2;Temp;Humidity;BMP_temperature;BMP_pressure;BME280_temperature;BME280_humidity;BME280_pressure;Samples;Min_cycle;Max_cycle;Signal;HPM_P1;HPM_P2
2022/09/11 00:04:32;;;;;;;7.82;3.63;;;15.40;99.90;;;;;;20966596;28;20106;-82
2022/09/11 00:14:33;;;;;;;6.10;3.03;;;15.50;99.90;;;;;;20967352;28;20044;-82
2022/09/11 00:24:34;;;;;;;6.47;3.35;;;15.70;99.90;;;;;;20966748;28;20047;-81
2022/09/11 00:34:35;;;;;;;8.45;3.22;;;15.70;99.90;;;;;;20975567;28;20549;-81
2022/09/11 00:44:36;;;;;;;5.82;3.38;;;15.70;99.90;;;;;;20990862;28;20483;-81
2022/09/11 00:54:56;;;;;;;8.65;3.13;;;15.80;99.90;;;;;;20984501;28;20067;-80
2022/09/11 01:04:57;;;;;;;7.43;3.90;;;15.80;99.90;;;;;;20980588;28;20352;-79
2022/09/11 01:15:33;;;;;;;6.32;3.33;;;15.80;99.90;;;;;;20980554;28;20047;-80
2022/09/11 01:25:37;;;;;;;8.43;3.55;;;15.60;99.90;;;;;;20983638;28;20116;-80
2022/09/11 01:35:48;;;;;;;6.68;3.58;;;15.60;99.90;;;;;;20992204;28;20032;-79
2022/09/11 01:45:50;;;;;;;6.78;4.15;;;15.40;99.90;;;;;;20977488;28;20754;-83
2022/09/11 01:56:01;;;;;;;7.10;2.90;;;15.30;99.90;;;;;;20966501;28;20036;-82
2022/09/11 02:06:20;;;;;;;7.63;4.15;;;15.10;99.90;;;;;;20977484;28;20047;-82
2022/09/11 02:16:38;;;;;;;6.57;3.30;;;15.00;99.90;;;;;;20976167;28;20062;-83
2022/09/11 02:26:44;;;;;;;5.47;2.75;;;15.00;99.90;;;;;;20973593;28;20064;-83
2022/09/11 02:36:50;;;;;;;4.60;2.50;;;14.90;99.90;;;;;;21562059;22;20696;-82
2022/09/11 02:47:03;;;;;;;8.20;3.72;;;14.70;99.90;;;;;;20813584;28;20053;-81
2022/09/11 02:57:18;;;;;;;7.68;3.58;;;14.70;99.90;;;;;;20814554;28;20041;-82
2022/09/11 03:07:19;;;;;;;6.10;3.17;;;14.60;99.90;;;;;;20810940;28;20041;-81
2022/09/11 03:17:20;;;;;;;6.22;3.20;;;14.50;99.90;;;;;;20824919;28;20038;-82
2022/09/11 03:27:22;;;;;;;6.93;3.20;;;14.40;99.90;;;;;;20852585;28;20119;-82
2022/09/11 03:37:25;;;;;;;7.85;4.07;;;14.30;99.90;;;;;;20813131;28;20100;-81
2022/09/11 03:47:26;;;;;;;6.50;4.00;;;14.20;99.90;;;;;;20799468;28;20067;-82
2022/09/11 03:57:27;;;;;;;7.47;4.72;;;14.20;99.90;;;;;;20800930;28;20037;-82
2022/09/11 04:07:30;;;;;;;7.63;4.00;;;14.00;99.90;;;;;;20813614;28;20041;-82
2022/09/11 04:17:31;;;;;;;6.57;3.05;;;14.00;99.90;;;;;;20818715;28;20084;-82
2022/09/11 04:27:32;;;;;;;7.38;3.20;;;14.00;99.90;;;;;;20784235;28;20038;-82
2022/09/11 04:37:34;;;;;;;6.47;3.10;;;14.00;99.90;;;;;;20802883;28;20087;-82
2022/09/11 04:47:35;;;;;;;7.40;3.50;;;13.90;99.90;;;;;;20804758;28;20114;-82
2022/09/11 04:57:37;;;;;;;5.38;3.00;;;13.90;99.90;;;;;;20819774;28;20037;-82
2022/09/11 05:07:38;;;;;;;5.88;3.65;;;13.90;99.90;;;;;;20807868;28;20495;-82
2022/09/11 05:17:39;;;;;;;4.95;2.53;;;13.80;99.90;;;;;;20822631;28;20043;-82
2022/09/11 05:27:40;;;;;;;4.40;2.47;;;13.70;99.90;;;;;;20777609;28;20528;-82
2022/09/11 05:37:41;;;;;;;5.30;2.33;;;13.80;99.90;;;;;;20799099;28;20674;-82
2022/09/11 05:47:42;;;;;;;5.95;2.72;;;13.70;99.90;;;;;;20809663;28;20037;-82
2022/09/11 05:57:43;;;;;;;6.90;3.17;;;13.80;99.90;;;;;;20800047;28;20025;-83
2022/09/11 06:07:44;;;;;;;6.68;3.10;;;13.90;99.90;;;;;;20802451;28;20045;-81
2022/09/11 06:17:45;;;;;;;5.78;4.07;;;14.00;99.90;;;;;;20806770;28;20045;-80
2022/09/11 06:27:46;;;;;;;6.53;3.47;;;14.20;99.90;;;;;;20827127;28;21653;-81
2022/09/11 06:37:47;;;;;;;4.53;2.85;;;14.30;99.90;;;;;;20814775;28;20057;-82
2022/09/11 06:47:48;;;;;;;5.07;3.30;;;14.40;99.90;;;;;;20772980;28;20045;-79
2022/09/11 06:57:49;;;;;;;7.20;3.35;;;14.50;99.90;;;;;;20807888;28;20041;-81
2022/09/11 07:07:54;;;;;;;4.97;2.78;;;14.60;99.90;;;;;;20816617;28;20052;-80
2022/09/11 07:17:55;;;;;;;4.35;2.63;;;14.80;99.90;;;;;;20803299;28;20878;-79
2022/09/11 07:27:56;;;;;;;3.50;2.00;;;15.20;99.90;;;;;;20813758;28;20041;-81
2022/09/11 07:37:57;;;;;;;8.13;3.88;;;15.60;99.90;;;;;;20810663;28;20041;-78
2022/09/11 07:48:00;;;;;;;6.40;3.50;;;16.00;99.90;;;;;;20826761;28;21631;-78
2022/09/11 07:58:01;;;;;;;6.03;2.58;;;16.50;99.90;;;;;;20805765;28;20142;-78
2022/09/11 08:08:02;;;;;;;10.52;4.57;;;16.80;99.90;;;;;;20816161;28;20045;-78
2022/09/11 08:18:03;;;;;;;7.75;3.25;;;17.20;99.90;;;;;;20816577;28;20546;-78
2022/09/11 08:28:05;;;;;;;5.35;2.25;;;17.50;99.90;;;;;;20804897;28;20048;-78
2022/09/11 08:38:06;;;;;;;3.85;2.13;;;17.90;99.90;;;;;;20802989;28;20051;-78
2022/09/11 08:48:10;;;;;;;4.05;2.03;;;18.30;99.90;;;;;;20790812;28;20071;-79
2022/09/11 08:58:35;;;;;;;2.33;1.55;;;18.50;99.90;;;;;;20800108;28;20141;-79
2022/09/11 09:08:44;;;;;;;2.80;1.25;;;18.90;99.90;;;;;;20779020;28;20774;-78
2022/09/11 09:18:52;;;;;;;2.53;1.10;;;19.60;99.90;;;;;;20769926;28;20090;-78
2022/09/11 09:28:57;;;;;;;1.98;0.95;;;20.10;99.90;;;;;;20782204;28;20116;-78
2022/09/11 09:38:58;;;;;;;1.58;0.93;;;20.20;99.90;;;;;;20772454;28;20560;-78
2022/09/11 09:49:00;;;;;;;3.28;1.73;;;19.80;99.90;;;;;;20810929;28;20867;-78
2022/09/11 09:59:12;;;;;;;1.50;0.85;;;20.00;99.90;;;;;;20801277;28;20098;-78
2022/09/11 10:09:32;;;;;;;1.58;0.63;;;19.60;99.90;;;;;;20787582;28;20483;-78
2022/09/11 10:19:34;;;;;;;3.60;0.85;;;19.10;99.90;;;;;;20801361;28;20099;-78
2022/09/11 10:29:35;;;;;;;1.02;0.50;;;19.20;99.90;;;;;;20811158;28;20107;-79
2022/09/11 10:39:38;;;;;;;0.73;0.45;;;19.50;99.90;;;;;;20787349;28;20041;-77
2022/09/11 10:49:39;;;;;;;2.95;1.27;;;20.20;99.90;;;;;;20788065;28;20444;-77
2022/09/11 10:59:58;;;;;;;1.38;0.68;;;20.90;99.90;;;;;;20792113;28;20099;-77
2022/09/11 11:10:15;;;;;;;2.28;0.68;;;21.40;99.90;;;;;;20798787;28;20540;-77
2022/09/11 11:20:36;;;;;;;1.00;0.38;;;21.90;99.90;;;;;;20794747;28;21718;-77
2022/09/11 11:30:55;;;;;;;1.63;0.40;;;22.60;99.90;;;;;;20791031;28;20037;-76
2022/09/11 11:41:08;;;;;;;0.82;0.40;;;21.80;99.90;;;;;;20808505;28;20404;-79
2022/09/11 11:51:16;;;;;;;0.85;0.40;;;21.00;99.90;;;;;;20807035;28;20056;-77
2022/09/11 12:01:28;;;;;;;0.77;0.40;;;21.00;99.90;;;;;;20812489;28;20049;-78
2022/09/11 12:11:31;;;;;;;2.05;0.60;;;22.40;99.90;;;;;;20780516;28;20080;-77
2022/09/11 12:21:35;;;;;;;0.82;0.40;;;22.40;99.90;;;;;;20814997;28;20044;-78
2022/09/11 12:31:48;;;;;;;1.23;0.38;;;22.60;99.90;;;;;;20815677;28;20052;-79
2022/09/11 12:41:49;;;;;;;0.70;0.50;;;24.20;99.90;;;;;;20803426;28;20434;-77
2022/09/11 12:51:54;;;;;;;3.03;1.02;;;24.60;99.90;;;;;;20802856;28;20041;-77
2022/09/11 13:01:56;;;;;;;1.58;0.32;;;23.60;99.90;;;;;;20800669;28;20041;-77
2022/09/11 13:12:17;;;;;;;0.57;0.30;;;22.50;99.90;;;;;;20789130;28;20095;-78
2022/09/11 13:22:27;;;;;;;1.83;0.50;;;21.80;99.90;;;;;;20793273;28;20045;-77
2022/09/11 13:32:29;;;;;;;0.90;0.50;;;23.70;99.90;;;;;;20795410;28;20041;-78
2022/09/11 13:42:32;;;;;;;1.60;0.70;;;24.90;99.90;;;;;;20791251;28;20060;-77
2022/09/11 13:52:34;;;;;;;4.43;0.40;;;23.90;99.90;;;;;;20794234;28;20041;-77
2022/09/11 14:02:42;;;;;;;0.98;0.40;;;22.90;99.90;;;;;;20781775;28;20091;-77
2022/09/11 14:12:54;;;;;;;0.80;0.35;;;23.30;99.90;;;;;;20803658;28;20037;-77
2022/09/11 14:22:59;;;;;;;0.90;0.43;;;23.80;99.90;;;;;;20800288;28;20040;-78
2022/09/11 14:33:14;;;;;;;1.02;0.35;;;22.80;99.90;;;;;;20803401;28;21033;-77
2022/09/11 14:43:21;;;;;;;0.82;0.40;;;22.80;99.90;;;;;;20787098;28;21537;-77
2022/09/11 14:53:41;;;;;;;1.20;0.50;;;22.50;99.90;;;;;;20782540;28;20050;-78
2022/09/11 15:03:42;;;;;;;1.70;0.93;;;22.30;99.90;;;;;;20798499;28;20099;-78
2022/09/11 15:13:43;;;;;;;0.65;0.30;;;23.10;99.90;;;;;;20808743;28;20033;-79
2022/09/11 15:23:46;;;;;;;1.50;0.60;;;22.90;99.90;;;;;;20824508;28;20044;-78
2022/09/11 15:33:50;;;;;;;1.45;0.82;;;22.70;99.90;;;;;;20838795;28;20045;-78
2022/09/11 15:43:51;;;;;;;1.17;0.47;;;22.90;99.90;;;;;;20814191;28;20041;-79
2022/09/11 15:53:57;;;;;;;1.60;0.70;;;22.80;99.90;;;;;;20808483;28;20034;-78
2022/09/11 16:04:02;;;;;;;1.13;0.40;;;22.60;99.90;;;;;;20816123;28;20041;-78
2022/09/11 16:14:03;;;;;;;1.30;0.50;;;22.60;99.90;;;;;;20811982;28;20333;-79
2022/09/11 16:24:05;;;;;;;1.63;0.50;;;22.50;99.90;;;;;;20816609;28;20044;-79
2022/09/11 16:34:07;;;;;;;0.73;0.45;;;22.40;99.90;;;;;;20824939;28;20068;-80
2022/09/11 16:44:11;;;;;;;1.75;0.50;;;22.10;99.90;;;;;;20808075;28;20034;-81
2022/09/11 16:54:12;;;;;;;3.20;0.60;;;21.90;99.90;;;;;;20818283;28;20041;-78
2022/09/11 17:04:13;;;;;;;2.08;0.47;;;21.80;99.90;;;;;;20800376;28;20091;-79
2022/09/11 17:14:16;;;;;;;2.40;0.50;;;21.70;99.90;;;;;;20799314;28;20037;-78
2022/09/11 17:24:20;;;;;;;1.58;0.68;;;21.60;99.90;;;;;;20812825;28;20144;-79
2022/09/11 17:34:21;;;;;;;2.75;0.50;;;21.50;99.90;;;;;;20792515;28;20132;-78
2022/09/11 17:44:23;;;;;;;2.35;0.50;;;21.50;99.90;;;;;;20799110;28;20060;-77
2022/09/11 17:54:26;;;;;;;1.48;0.50;;;21.40;99.90;;;;;;20807421;28;20129;-77
2022/09/11 18:04:27;;;;;;;0.95;0.57;;;21.20;99.90;;;;;;20816361;28;20049;-78
2022/09/11 18:14:30;;;;;;;3.45;0.82;;;20.80;99.90;;;;;;20835415;28;20029;-78
2022/09/11 18:24:31;;;;;;;1.08;0.52;;;20.40;99.90;;;;;;20841451;28;20048;-78
2022/09/11 18:34:33;;;;;;;1.05;0.50;;;20.10;99.90;;;;;;20842027;28;20049;-79
2022/09/11 18:44:34;;;;;;;1.73;0.68;;;19.70;99.90;;;;;;20854910;28;20044;-78
2022/09/11 18:54:36;;;;;;;1.63;0.93;;;19.40;99.90;;;;;;20821002;28;20087;-78
2022/09/11 19:04:37;;;;;;;1.45;0.88;;;19.10;99.90;;;;;;20821921;28;20779;-79
2022/09/11 19:14:38;;;;;;;1.83;0.88;;;18.80;99.90;;;;;;20827520;28;20037;-78
2022/09/11 19:24:40;;;;;;;2.15;1.17;;;18.70;99.90;;;;;;20824026;28;20091;-79
2022/09/11 19:34:41;;;;;;;1.98;0.98;;;18.40;99.90;;;;;;20851836;28;20045;-79
2022/09/11 19:44:43;;;;;;;1.70;0.80;;;18.30;99.90;;;;;;20831132;28;20038;-79
2022/09/11 19:54:44;;;;;;;2.65;0.90;;;18.00;99.90;;;;;;20827225;28;20026;-79
2022/09/11 20:04:45;;;;;;;1.95;1.00;;;18.00;99.90;;;;;;20842836;28;20048;-79
2022/09/11 20:14:46;;;;;;;1.65;0.93;;;17.80;99.90;;;;;;20828621;28;20041;-79
2022/09/11 20:24:50;;;;;;;2.63;1.27;;;17.60;99.90;;;;;;20831846;28;20444;-79
2022/09/11 20:34:51;;;;;;;2.47;1.27;;;17.50;99.90;;;;;;20844754;28;20095;-79
2022/09/11 20:44:52;;;;;;;2.75;1.20;;;17.40;99.90;;;;;;20821231;28;20041;-79
2022/09/11 20:54:53;;;;;;;2.85;1.33;;;17.20;99.90;;;;;;20825423;28;20029;-78
2022/09/11 21:04:54;;;;;;;2.65;1.48;;;17.10;99.90;;;;;;20824187;28;20106;-78
2022/09/11 21:14:55;;;;;;;4.18;1.23;;;17.00;99.90;;;;;;20818408;28;20036;-79
2022/09/11 21:24:56;;;;;;;2.20;1.10;;;16.90;99.90;;;;;;20823054;28;20148;-79
2022/09/11 21:34:57;;;;;;;4.00;1.30;;;16.90;99.90;;;;;;20818567;28;20114;-79
2022/09/11 21:44:58;;;;;;;4.55;2.17;;;16.70;99.90;;;;;;20817251;28;20045;-79
2022/09/11 21:54:59;;;;;;;2.25;1.00;;;16.60;99.90;;;;;;20815408;28;20457;-79
2022/09/11 22:05:00;;;;;;;1.92;1.17;;;16.50;99.90;;;;;;20815069;28;20041;-79
2022/09/11 22:15:01;;;;;;;2.25;1.38;;;16.40;99.90;;;;;;20829850;28;20033;-78
2022/09/11 22:25:03;;;;;;;1.90;1.30;;;16.30;99.90;;;;;;20812600;28;20115;-79
2022/09/11 22:35:04;;;;;;;6.18;1.17;;;16.20;99.90;;;;;;20829490;28;20052;-79
2022/09/11 22:45:07;;;;;;;4.53;1.38;;;16.10;99.90;;;;;;20829067;28;20041;-79
2022/09/11 22:55:08;;;;;;;4.28;1.95;;;16.10;99.90;;;;;;20830650;28;20394;-79
2022/09/11 23:15:28;;;;;;;4.65;2.22;;;15.90;99.90;;;;;;20834496;28;20041;-79
2022/09/11 23:25:30;;;;;;;2.55;1.40;;;15.80;99.90;;;;;;20821143;28;21677;-80
2022/09/11 23:35:31;;;;;;;3.90;2.10;;;15.70;99.90;;;;;;20846568;28;20045;-79
2022/09/11 23:45:32;;;;;;;4.65;2.00;;;15.70;99.90;;;;;;20829970;28;20431;-79
2022/09/11 23:55:34;;;;;;;4.93;2.97;;;15.60;99.90;;;;;;20826279;28;20103;-79
